PAEN/ENA METAR and TAF weather

Enter ICAO airport designator
Station Type Date Time Source
PAEN METAR 2021/09/24 02:55 UTC NOAA

PAEN 240255Z 34012KT 10SM SCT025 BKN060 08/M02 A2914 RMK AO2 T00831022


Station Type Date Time Source
PAEN Decoded METAR 2021/09/24 02:55 UTC NOAA

KENAI MUNICIPAL AIRPORT, AK, United States (PAEN) 60-35N 151-14W 25M
Sep 23, 2021 - 10:55 PM EDT / 2021.09.24 0255 UTC
Wind: from the NNW (340 degrees) at 14 MPH (12 KT):0
Visibility: 10 mile(s):0
Sky conditions: mostly cloudy
Temperature: 46.9 F (8.3 C)
Dew Point: 28.0 F (-2.2 C)
Relative Humidity: 47%
Pressure (altimeter): 29.14 in. Hg (986 hPa)
ob: PAEN 240255Z 34012KT 10SM SCT025 BKN060 08/M02 A2914 RMK AO2 T00831022
cycle: 3

Station Type Date Time Source
PAEN TAF 2021/09/23 18:30 UTC NOAA

TAF PAEN 231728Z 2318/2418 36018G26KT P6SM OVC050
FM240400 35014KT P6SM -RA OVC045

Example: see airport list